createdAt,value
2023-03-26T00:00:31.061Z,7.30
2023-03-26T00:03:39.329Z,7.21
2023-03-26T00:06:48.857Z,7.36
2023-03-26T00:09:58.113Z,7.47
2023-03-26T00:13:07.627Z,7.42
2023-03-26T00:16:20.361Z,7.38
2023-03-26T00:19:30.193Z,7.38
2023-03-26T00:22:38.327Z,7.44
2023-03-26T00:25:50.884Z,7.43
2023-03-26T00:29:00.256Z,7.53
2023-03-26T00:32:10.181Z,7.33
2023-03-26T00:35:18.714Z,7.21
2023-03-26T00:38:30.938Z,7.14
2023-03-26T00:41:43.271Z,7.02
2023-03-26T00:44:54.968Z,7.05
2023-03-26T00:48:04.956Z,6.94
2023-03-26T00:51:16.218Z,6.99
2023-03-26T00:54:24.592Z,6.96
2023-03-26T00:57:36.282Z,6.99
2023-03-26T01:00:50.875Z,6.96
2023-03-26T01:04:28.627Z,6.83
2023-03-26T01:07:38.167Z,6.75
2023-03-26T01:10:50.807Z,6.79
2023-03-26T01:14:08.395Z,6.70
2023-03-26T01:17:17.112Z,6.69
2023-03-26T01:20:30.404Z,6.58
2023-03-26T01:23:49.148Z,6.63
2023-03-26T01:27:17.729Z,6.70
2023-03-26T01:30:37.120Z,6.79
2023-03-26T01:33:57.847Z,6.93
2023-03-26T01:37:22.556Z,6.79
2023-03-26T01:40:42.847Z,6.73
2023-03-26T01:44:01.640Z,6.69
2023-03-26T01:47:13.650Z,6.75
2023-03-26T01:50:22.603Z,6.84
2023-03-26T01:53:33.477Z,6.62
2023-03-26T01:57:02.240Z,6.49
2023-03-26T02:00:27.478Z,6.41
2023-03-26T02:03:46.128Z,6.69
2023-03-26T02:07:05.726Z,6.50
2023-03-26T02:10:22.092Z,6.56
2023-03-26T02:13:31.486Z,6.51
2023-03-26T02:16:47.111Z,6.65
2023-03-26T02:19:55.561Z,6.62
2023-03-26T02:23:04.324Z,6.63
2023-03-26T02:26:15.773Z,6.67
2023-03-26T02:29:50.352Z,6.62
2023-03-26T02:33:03.790Z,6.81
2023-03-26T02:36:24.246Z,6.94
2023-03-26T02:39:33.713Z,6.90
2023-03-26T02:42:49.040Z,6.80
2023-03-26T02:45:58.318Z,6.83
2023-03-26T02:49:27.228Z,6.90
2023-03-26T02:52:36.072Z,6.85
2023-03-26T02:55:44.434Z,6.93
2023-03-26T02:58:52.664Z,6.72
2023-03-26T03:02:00.929Z,6.76
2023-03-26T03:05:11.685Z,6.74
2023-03-26T03:08:20.904Z,6.64
2023-03-26T03:11:53.545Z,6.72
2023-03-26T03:15:01.879Z,6.72
2023-03-26T03:18:11.300Z,6.82
2023-03-26T03:21:21.112Z,6.60
2023-03-26T03:24:29.345Z,6.51
2023-03-26T03:27:39.286Z,6.42
2023-03-26T03:30:53.507Z,6.41
2023-03-26T03:34:09.172Z,6.54
2023-03-26T03:37:21.970Z,6.51
2023-03-26T03:40:34.024Z,6.48
2023-03-26T03:43:42.676Z,6.61
2023-03-26T03:46:58.049Z,6.61
2023-03-26T03:50:08.356Z,6.67
2023-03-26T03:53:20.032Z,6.77
2023-03-26T03:56:31.588Z,6.80
2023-03-26T03:59:58.112Z,6.74
2023-03-26T04:03:10.023Z,6.79
2023-03-26T04:06:19.453Z,6.78
2023-03-26T04:09:34.233Z,6.94
2023-03-26T04:12:49.881Z,7.01
2023-03-26T04:16:00.072Z,6.84
2023-03-26T04:19:08.723Z,6.96
2023-03-26T04:22:18.695Z,7.01
2023-03-26T04:25:37.756Z,7.03
2023-03-26T04:28:57.834Z,6.93
2023-03-26T04:32:19.488Z,7.03
2023-03-26T04:35:30.342Z,7.08
2023-03-26T04:38:44.648Z,7.14
2023-03-26T04:41:56.455Z,7.08
2023-03-26T04:45:06.625Z,7.01
2023-03-26T04:48:15.420Z,7.05
2023-03-26T04:51:30.221Z,7.14
2023-03-26T04:54:40.457Z,7.14
2023-03-26T04:58:03.366Z,7.13
2023-03-26T05:01:32.268Z,7.04
2023-03-26T05:04:40.958Z,7.04
2023-03-26T05:07:50.023Z,6.99
2023-03-26T05:11:00.669Z,6.85
2023-03-26T05:14:16.378Z,7.00
2023-03-26T05:17:27.080Z,6.99
2023-03-26T05:20:35.975Z,7.01
2023-03-26T05:23:46.772Z,7.05
2023-03-26T05:27:00.365Z,7.05
2023-03-26T05:30:14.449Z,6.95
2023-03-26T05:33:25.780Z,7.07
2023-03-26T05:36:43.975Z,7.07
2023-03-26T05:40:22.511Z,7.11
2023-03-26T05:43:37.712Z,7.03
2023-03-26T05:47:00.830Z,7.17
2023-03-26T05:50:12.185Z,7.21
2023-03-26T05:53:26.402Z,7.26
2023-03-26T05:56:54.033Z,7.27
2023-03-26T06:00:24.209Z,7.38
2023-03-26T06:03:40.526Z,7.50
2023-03-26T06:06:57.010Z,7.52
2023-03-26T06:10:08.499Z,7.58
2023-03-26T06:13:17.602Z,7.52
2023-03-26T06:16:28.368Z,7.52
2023-03-26T06:19:58.600Z,7.59
2023-03-26T06:23:16.573Z,7.65
2023-03-26T06:26:57.357Z,7.70
2023-03-26T06:30:35.144Z,7.36
2023-03-26T06:33:54.465Z,7.42
2023-03-26T06:37:04.397Z,7.34
2023-03-26T06:40:14.842Z,7.41
2023-03-26T06:43:39.420Z,7.49
2023-03-26T06:47:02.520Z,7.63
2023-03-26T06:50:39.528Z,7.67
2023-03-26T06:54:14.876Z,7.50
2023-03-26T06:57:35.314Z,7.53
2023-03-26T07:01:03.489Z,7.52
2023-03-26T07:04:32.134Z,7.35
2023-03-26T07:07:59.040Z,7.55
2023-03-26T07:11:29.331Z,7.42
2023-03-26T07:14:57.915Z,7.41
2023-03-26T07:18:26.759Z,7.43
2023-03-26T07:21:37.066Z,7.50
2023-03-26T07:24:56.208Z,7.87
2023-03-26T07:28:28.808Z,8.09
2023-03-26T07:32:04.824Z,8.42
2023-03-26T07:35:47.810Z,8.59
2023-03-26T07:39:28.651Z,8.68
2023-03-26T07:43:09.392Z,8.64
2023-03-26T07:46:39.301Z,8.46
2023-03-26T07:50:06.000Z,8.47
2023-03-26T07:53:43.059Z,8.48
2023-03-26T07:57:34.936Z,8.55
2023-03-26T08:01:11.173Z,8.38
2023-03-26T08:04:56.305Z,8.49
2023-03-26T08:08:37.237Z,8.62
2023-03-26T08:12:27.215Z,8.85
2023-03-26T08:15:45.399Z,8.97
2023-03-26T08:19:06.162Z,9.10
2023-03-26T08:22:27.321Z,9.43
2023-03-26T08:25:52.683Z,9.69
2023-03-26T08:29:15.841Z,9.93
2023-03-26T08:32:24.864Z,10.01
2023-03-26T08:35:35.265Z,9.86
2023-03-26T08:38:46.919Z,9.62
2023-03-26T08:42:49.434Z,9.76
2023-03-26T08:46:34.292Z,9.91
2023-03-26T08:50:21.628Z,10.21
2023-03-26T08:54:15.062Z,10.51
2023-03-26T08:58:21.408Z,10.62
2023-03-26T09:02:12.330Z,10.62
2023-03-26T09:06:08.487Z,10.88
2023-03-26T09:10:27.541Z,10.88
2023-03-26T09:14:20.369Z,10.85
2023-03-26T09:18:27.926Z,10.91
2023-03-26T09:22:27.751Z,10.56
2023-03-26T09:26:23.775Z,10.36
2023-03-26T09:30:31.974Z,9.88
2023-03-26T09:34:03.797Z,9.72
2023-03-26T09:37:27.828Z,9.76
2023-03-26T09:40:44.083Z,9.56
2023-03-26T09:44:36.181Z,9.60
2023-03-26T09:48:21.543Z,9.54
2023-03-26T09:51:54.733Z,9.52
2023-03-26T09:55:40.440Z,9.54
2023-03-26T09:59:23.164Z,9.49
2023-03-26T10:03:00.150Z,9.51
2023-03-26T10:06:47.232Z,9.45
2023-03-26T10:10:06.486Z,9.49
2023-03-26T10:13:31.864Z,9.97
2023-03-26T10:16:59.500Z,9.86
2023-03-26T10:20:32.410Z,9.82
2023-03-26T10:24:09.860Z,9.85
2023-03-26T10:27:41.183Z,9.67
2023-03-26T10:31:28.343Z,9.51
2023-03-26T10:35:11.185Z,9.58
2023-03-26T10:38:38.881Z,9.40
2023-03-26T10:42:02.006Z,9.15
2023-03-26T10:45:43.744Z,8.27
2023-03-26T10:49:53.598Z,8.22
2023-03-26T10:53:11.385Z,8.23
2023-03-26T10:56:36.038Z,8.11
2023-03-26T10:59:44.556Z,8.39
2023-03-26T11:03:41.876Z,8.41
2023-03-26T11:07:08.670Z,8.47
2023-03-26T11:10:27.162Z,8.93
2023-03-26T11:13:52.030Z,9.29
2023-03-26T11:17:40.198Z,9.26
2023-03-26T11:20:57.142Z,9.46
2023-03-26T11:25:09.952Z,9.42
2023-03-26T11:28:42.194Z,9.32
2023-03-26T11:32:16.125Z,8.60
2023-03-26T11:35:39.482Z,8.75
2023-03-26T11:38:52.086Z,9.18
2023-03-26T11:42:14.110Z,9.19
2023-03-26T11:45:30.795Z,9.27
2023-03-26T11:48:44.893Z,9.02
2023-03-26T11:51:54.372Z,8.79
2023-03-26T11:55:03.354Z,8.63
2023-03-26T11:58:31.226Z,8.78
2023-03-26T12:01:50.841Z,8.89
2023-03-26T12:05:20.847Z,8.99
2023-03-26T12:08:35.766Z,8.89
2023-03-26T12:11:54.608Z,8.87
2023-03-26T12:15:05.093Z,8.77
2023-03-26T12:18:27.211Z,8.91
2023-03-26T12:21:48.510Z,9.63
2023-03-26T12:25:15.431Z,10.82
2023-03-26T12:28:23.656Z,11.05
2023-03-26T12:31:53.238Z,11.19
2023-03-26T12:35:07.721Z,11.44
2023-03-26T12:38:24.283Z,10.95
2023-03-26T12:42:25.712Z,10.71
2023-03-26T12:45:15.744Z,10.52
2023-03-26T12:48:27.161Z,10.20
2023-03-26T12:51:49.118Z,10.39
2023-03-26T12:55:14.487Z,10.14
2023-03-26T12:58:47.950Z,9.98
2023-03-26T13:02:21.189Z,9.71
2023-03-26T13:05:46.607Z,9.52
2023-03-26T13:09:32.905Z,9.61
2023-03-26T13:12:52.693Z,9.68
2023-03-26T13:16:10.619Z,9.71
2023-03-26T13:19:28.952Z,9.87
2023-03-26T13:22:53.169Z,9.84
2023-03-26T13:26:17.168Z,9.81
2023-03-26T13:29:38.172Z,9.88
2023-03-26T13:33:10.609Z,9.74
2023-03-26T13:36:27.623Z,9.73
2023-03-26T13:39:58.094Z,9.83
2023-03-26T13:43:35.212Z,9.77
2023-03-26T13:46:49.742Z,9.50
2023-03-26T13:50:06.509Z,9.45
2023-03-26T13:53:20.628Z,9.44
2023-03-26T13:56:42.089Z,9.42
2023-03-26T13:59:57.540Z,9.53
2023-03-26T14:03:19.734Z,9.65
2023-03-26T14:06:46.736Z,9.62
2023-03-26T14:10:03.232Z,9.67
2023-03-26T14:13:23.282Z,9.58
2023-03-26T14:16:39.387Z,9.65
2023-03-26T14:20:33.149Z,9.58
2023-03-26T14:24:13.605Z,9.61
2023-03-26T14:27:49.641Z,9.59
2023-03-26T14:31:23.698Z,9.64
2023-03-26T14:35:00.158Z,9.65
2023-03-26T14:38:34.074Z,9.76
2023-03-26T14:41:51.677Z,9.69
2023-03-26T14:45:36.846Z,9.68
2023-03-26T14:49:21.899Z,9.70
2023-03-26T14:52:47.518Z,9.69
2023-03-26T14:56:54.481Z,9.62
2023-03-26T15:01:10.896Z,9.51
2023-03-26T15:04:59.159Z,9.49
2023-03-26T15:09:09.146Z,9.43
2023-03-26T15:12:35.954Z,9.51
2023-03-26T15:16:14.978Z,9.55
2023-03-26T15:20:21.183Z,9.62
2023-03-26T15:24:14.337Z,9.58
2023-03-26T15:27:39.618Z,9.56
2023-03-26T15:31:43.309Z,9.57
2023-03-26T15:35:33.295Z,9.58
2023-03-26T15:39:32.215Z,9.56
2023-03-26T15:42:59.249Z,9.42
2023-03-26T15:46:33.984Z,9.37
2023-03-26T15:49:50.550Z,9.38
2023-03-26T15:53:19.464Z,9.37
2023-03-26T15:56:49.317Z,9.34
2023-03-26T16:00:36.082Z,9.01
2023-03-26T16:03:57.110Z,8.79
2023-03-26T16:07:26.317Z,8.46
2023-03-26T16:10:49.871Z,8.01
2023-03-26T16:14:18.267Z,7.88
2023-03-26T16:17:27.758Z,7.66
2023-03-26T16:20:50.767Z,7.67
2023-03-26T16:24:23.536Z,7.68
2023-03-26T16:27:36.904Z,7.51
2023-03-26T16:30:48.409Z,7.51
2023-03-26T16:34:21.474Z,7.48
2023-03-26T16:37:43.763Z,7.49
2023-03-26T16:41:17.141Z,7.74
2023-03-26T16:44:41.324Z,7.69
2023-03-26T16:48:03.292Z,7.68
2023-03-26T16:51:22.969Z,7.63
2023-03-26T16:54:47.030Z,7.60
2023-03-26T16:58:08.972Z,7.46
2023-03-26T17:01:34.750Z,7.42
2023-03-26T17:04:52.646Z,7.20
2023-03-26T17:08:11.997Z,7.18
2023-03-26T17:11:38.651Z,7.08
2023-03-26T17:15:08.425Z,7.13
2023-03-26T17:18:33.534Z,6.97
2023-03-26T17:21:56.794Z,7.08
2023-03-26T17:25:22.439Z,7.21
2023-03-26T17:29:15.401Z,7.36
2023-03-26T17:32:24.522Z,7.37
2023-03-26T17:35:45.587Z,7.33
2023-03-26T17:40:12.341Z,7.23
2023-03-26T17:43:45.022Z,7.28
2023-03-26T17:46:57.766Z,7.27
2023-03-26T17:50:15.731Z,7.23
2023-03-26T17:53:32.255Z,7.13
2023-03-26T17:56:42.951Z,7.00
2023-03-26T17:59:58.431Z,7.02
2023-03-26T18:03:20.266Z,6.87
2023-03-26T18:06:51.791Z,6.79
2023-03-26T18:10:33.128Z,6.61
2023-03-26T18:14:34.848Z,6.39
2023-03-26T18:17:48.175Z,6.32
2023-03-26T18:21:03.649Z,6.13
2023-03-26T18:24:21.784Z,6.09
2023-03-26T18:27:40.363Z,5.92
2023-03-26T18:30:51.059Z,5.67
2023-03-26T18:34:14.100Z,5.50
2023-03-26T18:37:27.309Z,5.50
2023-03-26T18:40:43.050Z,5.52
2023-03-26T18:43:52.906Z,5.39
2023-03-26T18:47:01.171Z,5.47
2023-03-26T18:50:19.949Z,5.41
2023-03-26T18:53:31.758Z,5.28
2023-03-26T18:56:43.161Z,5.17
2023-03-26T18:59:55.891Z,5.28
2023-03-26T19:03:08.168Z,5.27
2023-03-26T19:06:17.741Z,5.19
2023-03-26T19:09:31.996Z,5.11
2023-03-26T19:12:41.366Z,5.11
2023-03-26T19:15:54.986Z,5.08
2023-03-26T19:19:08.680Z,4.84
2023-03-26T19:22:19.123Z,4.90
2023-03-26T19:25:35.395Z,4.88
2023-03-26T19:28:50.737Z,4.98
2023-03-26T19:32:07.395Z,4.95
2023-03-26T19:35:24.140Z,4.92
2023-03-26T19:38:44.182Z,4.93
2023-03-26T19:41:54.408Z,4.82
2023-03-26T19:45:07.061Z,4.97
2023-03-26T19:48:45.841Z,5.09
2023-03-26T19:51:53.268Z,5.11
2023-03-26T19:55:05.179Z,5.14
2023-03-26T19:58:13.772Z,5.21
2023-03-26T20:01:26.759Z,5.14
2023-03-26T20:04:36.803Z,5.27
2023-03-26T20:07:45.297Z,5.27
2023-03-26T20:10:55.758Z,5.37
2023-03-26T20:14:13.526Z,5.36
2023-03-26T20:17:22.386Z,5.34
2023-03-26T20:20:34.266Z,5.32
2023-03-26T20:23:43.117Z,5.40
2023-03-26T20:26:51.470Z,5.38
2023-03-26T20:30:00.297Z,5.40
2023-03-26T20:36:32.711Z,5.35
2023-03-26T20:39:43.086Z,5.36
2023-03-26T20:42:51.647Z,5.24
2023-03-26T20:46:01.679Z,5.33
2023-03-26T20:49:11.058Z,5.26
2023-03-26T20:52:22.812Z,5.20
2023-03-26T20:55:31.161Z,5.31
2023-03-26T20:58:40.175Z,5.17
2023-03-26T21:01:49.758Z,5.26
2023-03-26T21:04:58.617Z,5.17
2023-03-26T21:08:18.557Z,5.21
2023-03-26T21:11:44.470Z,5.29
2023-03-26T21:14:55.732Z,5.35
2023-03-26T21:18:05.480Z,5.38
2023-03-26T21:21:35.689Z,5.41
2023-03-26T21:25:05.942Z,5.21
2023-03-26T21:28:39.820Z,5.14
2023-03-26T21:31:54.000Z,5.17
2023-03-26T21:35:05.262Z,5.15
2023-03-26T21:38:15.555Z,5.09
2023-03-26T21:41:41.184Z,5.06
2023-03-26T21:44:50.810Z,5.03
2023-03-26T21:47:59.793Z,5.08
2023-03-26T21:51:14.689Z,5.13
2023-03-26T21:54:27.368Z,5.13
2023-03-26T21:57:57.474Z,5.24
2023-03-26T22:01:25.083Z,5.20
2023-03-26T22:04:43.082Z,5.17
2023-03-26T22:07:58.479Z,5.02
2023-03-26T22:11:08.264Z,5.12
2023-03-26T22:14:17.867Z,4.88
2023-03-26T22:17:26.148Z,4.97
2023-03-26T22:20:34.927Z,4.92
2023-03-26T22:23:43.187Z,5.02
2023-03-26T22:26:51.631Z,5.06
2023-03-26T22:30:01.161Z,4.98
2023-03-26T22:33:10.882Z,4.96
2023-03-26T22:36:22.770Z,5.01
2023-03-26T22:39:32.324Z,4.91
2023-03-26T22:42:41.048Z,4.93
2023-03-26T22:45:53.739Z,4.82
2023-03-26T22:49:02.137Z,4.82
2023-03-26T22:52:11.056Z,4.75
2023-03-26T22:55:29.035Z,4.91
2023-03-26T22:58:38.962Z,4.97
2023-03-26T23:01:48.595Z,5.05
2023-03-26T23:04:57.042Z,5.03
2023-03-26T23:08:07.720Z,4.93
2023-03-26T23:11:18.727Z,4.92
2023-03-26T23:14:28.567Z,5.08
2023-03-26T23:17:39.343Z,5.10
2023-03-26T23:20:52.731Z,5.07
2023-03-26T23:24:01.428Z,5.10
2023-03-26T23:27:10.801Z,5.09
2023-03-26T23:30:19.610Z,5.01
2023-03-26T23:33:33.296Z,5.06
2023-03-26T23:36:42.277Z,4.99
2023-03-26T23:39:50.885Z,4.98
2023-03-26T23:42:59.786Z,4.95
2023-03-26T23:46:10.357Z,4.96
2023-03-26T23:49:20.829Z,4.85
2023-03-26T23:52:30.152Z,4.82
2023-03-26T23:55:38.336Z,4.74
2023-03-26T23:58:46.523Z,4.68
